Time;durP1;ratioP1;P1;durP2;ratioP2;P2;SDS_P1;SDS_P2;PMS_P1;PMS_P2;Temp;Humidity;BMP_temperature;BMP_pressure;BME280_temperature;BME280_humidity;BME280_pressure;Samples;Min_cycle;Max_cycle;Signal;HPM_P1;HPM_P2
2023/05/17 00:00:50;;;;;;;;;;;;;;;;;;5081634;28;19927;-80
2023/05/17 00:03:23;;;;;;;;;;;;;;;;;;5080274;28;19931;-78
2023/05/17 00:05:52;;;;;;;;;;;;;;;;;;5074255;28;19920;-79
2023/05/17 00:08:24;;;;;;;;;;;;;;;;;;5081685;28;19936;-81
2023/05/17 00:10:52;;;;;;;;;;;;;;;;;;5081552;28;20537;-80
2023/05/17 00:13:19;;;;;;;;;;;;;;;;;;5080548;28;19926;-80
2023/05/17 00:15:47;;;;;;;;;;;;;;;;;;5084487;28;19927;-80
2023/05/17 00:18:14;;;;;;;;;;;;;;;;;;5078926;28;20280;-79
2023/05/17 00:20:47;;;;;;;;;;;;;;;;;;5089692;28;19924;-80
2023/05/17 00:23:14;;;;;;;;;;;;;;;;;;5081072;28;20466;-79
2023/05/17 00:25:42;;;;;;;;;;;;;;;;;;5079947;28;19924;-80
2023/05/17 00:28:09;;;;;;;;;;;;;;;;;;5081942;28;20308;-79
2023/05/17 00:30:42;;;;;;;;;;;;;;;;;;5088507;28;19924;-80
2023/05/17 00:33:09;;;;;;;;;;;;;;;;;;5081249;28;20287;-80
2023/05/17 00:35:37;;;;;;;;;;;;;;;;;;5083000;28;19924;-79
2023/05/17 00:38:04;;;;;;;;;;;;;;;;;;5080918;28;19924;-80
2023/05/17 00:40:37;;;;;;;;;;;;;;;;;;5081224;28;20595;-80
2023/05/17 00:43:04;;;;;;;;;;;;;;;;;;5077747;28;19932;-79
2023/05/17 00:45:33;;;;;;;;;;;;;;;;;;5082375;28;19932;-80
2023/05/17 00:48:02;;;;;;;;;;;;;;;;;;5079101;28;19939;-80
2023/05/17 00:50:35;;;;;;;;;;;;;;;;;;5080192;28;19943;-79
2023/05/17 00:53:07;;;;;;;;;;;;;;;;;;5088737;28;19963;-80
2023/05/17 00:55:35;;;;;;;;;;;;;;;;;;5081317;28;19927;-80
2023/05/17 00:58:02;;;;;;;;;;;;;;;;;;5080974;28;20498;-80
2023/05/17 01:00:35;;;;;;;;;;;;;;;;;;5079030;28;19928;-80
2023/05/17 01:03:07;;;;;;;;;;;;;;;;;;5081673;28;19924;-80
2023/05/17 01:05:35;;;;;;;;;;;;;;;;;;5080158;28;19943;-80
2023/05/17 01:08:03;;;;;;;;;;;;;;;;;;5079669;28;19924;-80
2023/05/17 01:10:30;;;;;;;;;;;;;;;;;;5078472;28;19927;-80
2023/05/17 01:13:03;;;;;;;;;;;;;;;;;;5086032;28;19920;-79
2023/05/17 01:15:30;;;;;;;;;;;;;;;;;;5077314;28;19924;-79
2023/05/17 01:18:03;;;;;;;;;;;;;;;;;;5086971;28;19924;-80
2023/05/17 01:20:36;;;;;;;;;;;;;;;;;;5082717;28;19920;-79
2023/05/17 01:23:09;;;;;;;;;;;;;;;;;;5077613;28;20292;-79
2023/05/17 01:25:36;;;;;;;;;;;;;;;;;;5073981;28;19934;-80
2023/05/17 01:28:04;;;;;;;;;;;;;;;;;;5082454;28;19930;-79
2023/05/17 01:30:32;;;;;;;;;;;;;;;;;;5081450;28;20304;-79
2023/05/17 01:32:59;;;;;;;;;;;;;;;;;;5084137;28;20273;-80
2023/05/17 01:35:33;;;;;;;;;;;;;;;;;;5080949;28;19924;-80
2023/05/17 01:38:00;;;;;;;;;;;;;;;;;;5087310;28;19920;-80
2023/05/17 01:40:28;;;;;;;;;;;;;;;;;;5081864;28;19924;-80
2023/05/17 01:42:55;;;;;;;;;;;;;;;;;;5085626;28;19927;-80
2023/05/17 01:45:23;;;;;;;;;;;;;;;;;;5085331;28;20415;-80
2023/05/17 01:47:50;;;;;;;;;;;;;;;;;;5081187;28;20374;-80
2023/05/17 01:50:18;;;;;;;;;;;;;;;;;;5083601;28;19931;-79
2023/05/17 01:52:51;;;;;;;;;;;;;;;;;;5092317;28;20772;-80
2023/05/17 01:55:23;;;;;;;;;;;;;;;;;;5084153;28;20638;-79
2023/05/17 01:57:51;;;;;;;;;;;;;;;;;;5090347;28;19931;-79
2023/05/17 02:00:18;;;;;;;;;;;;;;;;;;5083080;28;19963;-80
2023/05/17 02:02:46;;;;;;;;;;;;;;;;;;5078104;28;19927;-80
2023/05/17 02:05:20;;;;;;;;;;;;;;;;;;5084926;28;19935;-80
2023/05/17 02:07:47;;;;;;;;;;;;;;;;;;5085727;28;20532;-80
2023/05/17 02:10:15;;;;;;;;;;;;;;;;;;5088096;28;19928;-79
2023/05/17 02:12:48;;;;;;;;;;;;;;;;;;5080315;28;19943;-80
2023/05/17 02:15:15;;;;;;;;;;;;;;;;;;5086204;28;20368;-81
2023/05/17 02:17:48;;;;;;;;;;;;;;;;;;5079500;28;20533;-79
2023/05/17 02:20:22;;;;;;;;;;;;;;;;;;5086113;28;19920;-80
2023/05/17 02:22:51;;;;;;;;;;;;;;;;;;5084698;28;19920;-80
2023/05/17 02:25:19;;;;;;;;;;;;;;;;;;5102480;28;19924;-81
2023/05/17 02:27:46;;;;;;;;;;;;;;;;;;5076412;28;20403;-80
2023/05/17 02:30:21;;;;;;;;;;;;;;;;;;5084437;28;19925;-80
2023/05/17 02:32:48;;;;;;;;;;;;;;;;;;5082177;28;20775;-80
2023/05/17 02:35:21;;;;;;;;;;;;;;;;;;5090441;28;19930;-80
2023/05/17 02:37:50;;;;;;;;;;;;;;;;;;5085442;28;19920;-80
2023/05/17 02:40:23;;;;;;;;;;;;;;;;;;5083951;28;19924;-80
2023/05/17 02:42:55;;;;;;;;;;;;;;;;;;5085092;28;20383;-80
2023/05/17 02:45:23;;;;;;;;;;;;;;;;;;5086234;28;19939;-80
2023/05/17 02:47:56;;;;;;;;;;;;;;;;;;5086254;28;20288;-80
2023/05/17 02:50:23;;;;;;;;;;;;;;;;;;5080055;28;19927;-80
2023/05/17 02:52:51;;;;;;;;;;;;;;;;;;5089012;28;19924;-80
2023/05/17 02:55:19;;;;;;;;;;;;;;;;;;5089689;28;19920;-80
2023/05/17 02:57:51;;;;;;;;;;;;;;;;;;5081265;28;19931;-80
2023/05/17 03:00:20;;;;;;;;;;;;;;;;;;5079308;28;20210;-80
2023/05/17 03:02:48;;;;;;;;;;;;;;;;;;5079844;28;19920;-79
2023/05/17 03:05:15;;;;;;;;;;;;;;;;;;5083941;28;19920;-80
2023/05/17 03:07:50;;;;;;;;;;;;;;;;;;5082202;28;20386;-80
2023/05/17 03:10:18;;;;;;;;;;;;;;;;;;5081614;28;19931;-80
2023/05/17 03:12:46;;;;;;;;;;;;;;;;;;5081877;28;19931;-80
2023/05/17 03:15:16;;;;;;;;;;;;;;;;;;5082116;28;20399;-79
2023/05/17 03:17:44;;;;;;;;;;;;;;;;;;5080576;28;19924;-79
2023/05/17 03:20:12;;;;;;;;;;;;;;;;;;5082665;28;19927;-80
2023/05/17 03:22:45;;;;;;;;;;;;;;;;;;5081260;28;19944;-80
2023/05/17 03:25:13;;;;;;;;;;;;;;;;;;5081996;28;19931;-80
2023/05/17 03:27:41;;;;;;;;;;;;;;;;;;5082007;28;19931;-80
2023/05/17 03:30:08;;;;;;;;;;;;;;;;;;5086400;28;20653;-79
2023/05/17 03:32:36;;;;;;;;;;;;;;;;;;5081795;28;19920;-80
2023/05/17 03:35:09;;;;;;;;;;;;;;;;;;5080640;28;19931;-80
2023/05/17 03:37:38;;;;;;;;;;;;;;;;;;5088566;28;19924;-80
2023/05/17 03:40:06;;;;;;;;;;;;;;;;;;5081080;28;20288;-80
2023/05/17 03:42:38;;;;;;;;;;;;;;;;;;5080406;28;19931;-79
2023/05/17 03:45:06;;;;;;;;;;;;;;;;;;5080794;28;20258;-79
2023/05/17 03:47:34;;;;;;;;;;;;;;;;;;5086728;28;19928;-80
2023/05/17 03:50:02;;;;;;;;;;;;;;;;;;5081153;28;19924;-80
2023/05/17 03:52:35;;;;;;;;;;;;;;;;;;5083309;28;20357;-79
2023/05/17 03:55:08;;;;;;;;;;;;;;;;;;5085403;28;19931;-79
2023/05/17 03:57:36;;;;;;;;;;;;;;;;;;5080161;28;19927;-80
2023/05/17 04:00:05;;;;;;;;;;;;;;;;;;5089653;28;19920;-80
2023/05/17 04:02:43;;;;;;;;;;;;;;;;;;5088240;28;19927;-80
2023/05/17 04:05:12;;;;;;;;;;;;;;;;;;5079275;28;19943;-79
2023/05/17 04:07:41;;;;;;;;;;;;;;;;;;5088907;28;19921;-80
2023/05/17 04:10:08;;;;;;;;;;;;;;;;;;5082730;28;19932;-80
2023/05/17 04:12:36;;;;;;;;;;;;;;;;;;5081819;28;19920;-79
2023/05/17 04:15:08;;;;;;;;;;;;;;;;;;5079734;28;20364;-79
2023/05/17 04:17:42;;;;;;;;;;;;;;;;;;5089436;28;19924;-79
2023/05/17 04:20:09;;;;;;;;;;;;;;;;;;5082470;28;19928;-81
2023/05/17 04:22:42;;;;;;;;;;;;;;;;;;5082484;28;20389;-80
2023/05/17 04:25:11;;;;;;;;;;;;;;;;;;5078080;28;20309;-80
2023/05/17 04:27:39;;;;;;;;;;;;;;;;;;5077613;28;19920;-80
2023/05/17 04:30:13;;;;;;;;;;;;;;;;;;5078789;28;19924;-80
2023/05/17 04:32:41;;;;;;;;;;;;;;;;;;5081099;28;19925;-79
2023/05/17 04:35:09;;;;;;;;;;;;;;;;;;5081866;28;19924;-80
2023/05/17 04:37:39;;;;;;;;;;;;;;;;;;5078965;28;20285;-80
2023/05/17 04:40:16;;;;;;;;;;;;;;;;;;5082598;28;19920;-80
2023/05/17 04:42:44;;;;;;;;;;;;;;;;;;5086445;28;19924;-80
2023/05/17 04:45:12;;;;;;;;;;;;;;;;;;5080376;28;19966;-80
2023/05/17 04:47:40;;;;;;;;;;;;;;;;;;5083131;28;19947;-80
2023/05/17 04:50:14;;;;;;;;;;;;;;;;;;5078338;28;20820;-80
2023/05/17 04:52:42;;;;;;;;;;;;;;;;;;5080112;28;19927;-80
2023/05/17 04:55:10;;;;;;;;;;;;;;;;;;5080744;28;20007;-79
2023/05/17 04:57:43;;;;;;;;;;;;;;;;;;5079933;28;19928;-80
2023/05/17 05:00:14;;;;;;;;;;;;;;;;;;5078757;28;19924;-79
2023/05/17 05:02:45;;;;;;;;;;;;;;;;;;5077364;28;19920;-81
2023/05/17 05:05:13;;;;;;;;;;;;;;;;;;5078334;28;20287;-80
2023/05/17 05:07:45;;;;;;;;;;;;;;;;;;5087977;28;19931;-79
2023/05/17 05:10:13;;;;;;;;;;;;;;;;;;5081122;28;19924;-81
2023/05/17 05:12:41;;;;;;;;;;;;;;;;;;5082015;28;19927;-80
2023/05/17 05:15:09;;;;;;;;;;;;;;;;;;5084873;28;19924;-81
2023/05/17 05:17:47;;;;;;;;;;;;;;;;;;5077810;28;19924;-81
2023/05/17 05:20:14;;;;;;;;;;;;;;;;;;5076142;28;19924;-81
2023/05/17 05:22:42;;;;;;;;;;;;;;;;;;5091493;28;19931;-79
2023/05/17 05:25:10;;;;;;;;;;;;;;;;;;5096386;28;19924;-81
2023/05/17 05:27:38;;;;;;;;;;;;;;;;;;5090555;28;19971;-80
2023/05/17 05:30:05;;;;;;;;;;;;;;;;;;5085641;28;19924;-81
2023/05/17 05:32:33;;;;;;;;;;;;;;;;;;5078129;28;19924;-80
2023/05/17 05:35:01;;;;;;;;;;;;;;;;;;5078621;28;19921;-80
2023/05/17 05:37:28;;;;;;;;;;;;;;;;;;5076547;28;19943;-81
2023/05/17 05:39:56;;;;;;;;;;;;;;;;;;5079145;28;19921;-81
2023/05/17 05:42:29;;;;;;;;;;;;;;;;;;5073902;28;19920;-81
2023/05/17 05:45:01;;;;;;;;;;;;;;;;;;5074750;28;19921;-80
2023/05/17 05:47:29;;;;;;;;;;;;;;;;;;5075884;28;19920;-83
2023/05/17 05:49:57;;;;;;;;;;;;;;;;;;5079603;28;19924;-81
2023/05/17 05:52:24;;;;;;;;;;;;;;;;;;5076689;28;20639;-82
2023/05/17 05:54:52;;;;;;;;;;;;;;;;;;5075570;28;19923;-82
2023/05/17 05:57:19;;;;;;;;;;;;;;;;;;5078649;28;19942;-82
2023/05/17 05:59:52;;;;;;;;;;;;;;;;;;5084708;28;19928;-80
2023/05/17 06:02:20;;;;;;;;;;;;;;;;;;5075901;28;19920;-82
2023/05/17 06:04:48;;;;;;;;;;;;;;;;;;5077015;28;19931;-83
2023/05/17 06:07:16;;;;;;;;;;;;;;;;;;5078903;28;19928;-82
2023/05/17 06:09:48;;;;;;;;;;;;;;;;;;5076933;28;20399;-83
2023/05/17 06:12:16;;;;;;;;;;;;;;;;;;5075034;28;20388;-81
2023/05/17 06:14:44;;;;;;;;;;;;;;;;;;5076735;28;20435;-81
2023/05/17 06:17:16;;;;;;;;;;;;;;;;;;5078674;28;19927;-83
2023/05/17 06:19:44;;;;;;;;;;;;;;;;;;5081346;28;19928;-81
2023/05/17 06:22:11;;;;;;;;;;;;;;;;;;5082915;28;19920;-81
2023/05/17 06:24:39;;;;;;;;;;;;;;;;;;5086439;28;19924;-80
2023/05/17 06:27:07;;;;;;;;;;;;;;;;;;5088809;28;19920;-80
2023/05/17 06:29:34;;;;;;;;;;;;;;;;;;5081752;28;19970;-81
2023/05/17 06:32:02;;;;;;;;;;;;;;;;;;5081272;28;19923;-83
2023/05/17 06:34:34;;;;;;;;;;;;;;;;;;5079817;28;19924;-81
2023/05/17 06:37:02;;;;;;;;;;;;;;;;;;5082516;28;20284;-80
2023/05/17 06:39:34;;;;;;;;;;;;;;;;;;5079233;28;20304;-82
2023/05/17 06:42:02;;;;;;;;;;;;;;;;;;5077703;28;19920;-83
2023/05/17 06:44:35;;;;;;;;;;;;;;;;;;5082501;28;19928;-83
2023/05/17 06:47:02;;;;;;;;;;;;;;;;;;5081514;28;19920;-81
2023/05/17 06:49:30;;;;;;;;;;;;;;;;;;5083182;28;19935;-80
2023/05/17 06:52:04;;;;;;;;;;;;;;;;;;5081598;28;19995;-81
2023/05/17 06:54:37;;;;;;;;;;;;;;;;;;5080620;28;20259;-80
2023/05/17 06:57:09;;;;;;;;;;;;;;;;;;5087458;28;19920;-80
2023/05/17 06:59:42;;;;;;;;;;;;;;;;;;5091022;28;20293;-80
2023/05/17 07:02:14;;;;;;;;;;;;;;;;;;5073502;28;20075;-79
2023/05/17 07:04:42;;;;;;;;;;;;;;;;;;5082112;28;20253;-81
2023/05/17 07:07:14;;;;;;;;;;;;;;;;;;5087107;28;19938;-81
2023/05/17 07:09:42;;;;;;;;;;;;;;;;;;5088015;28;19920;-81
2023/05/17 07:12:09;;;;;;;;;;;;;;;;;;5088762;28;19920;-81
2023/05/17 07:14:37;;;;;;;;;;;;;;;;;;5096475;28;19943;-79
2023/05/17 07:17:07;;;;;;;;;;;;;;;;;;5083103;28;19930;-80
2023/05/17 07:19:34;;;;;;;;;;;;;;;;;;5080511;28;19932;-80
2023/05/17 07:22:02;;;;;;;;;;;;;;;;;;5086214;28;20300;-82
2023/05/17 07:24:29;;;;;;;;;;;;;;;;;;5079872;28;19924;-79
2023/05/17 07:27:02;;;;;;;;;;;;;;;;;;5085241;28;19923;-79
2023/05/17 07:29:29;;;;;;;;;;;;;;;;;;5079365;28;19924;-83
2023/05/17 07:31:57;;;;;;;;;;;;;;;;;;5081543;28;19920;-82
2023/05/17 07:34:24;;;;;;;;;;;;;;;;;;5080720;28;19919;-81
2023/05/17 07:36:52;;;;;;;;;;;;;;;;;;5078575;28;19931;-82
2023/05/17 07:39:24;;;;;;;;;;;;;;;;;;5081366;28;20312;-82
2023/05/17 07:41:52;;;;;;;;;;;;;;;;;;5078974;28;19921;-83
2023/05/17 07:44:20;;;;;;;;;;;;;;;;;;5074666;28;19931;-83
2023/05/17 07:46:48;;;;;;;;;;;;;;;;;;5072390;28;20380;-82
2023/05/17 07:49:20;;;;;;;;;;;;;;;;;;5065536;28;19928;-82
2023/05/17 07:51:48;;;;;;;;;;;;;;;;;;5064904;28;20635;-81
2023/05/17 07:54:16;;;;;;;;;;;;;;;;;;5063504;28;19935;-84
2023/05/17 07:56:43;;;;;;;;;;;;;;;;;;5063213;28;19935;-82
2023/05/17 07:59:13;;;;;;;;;;;;;;;;;;5066754;28;19935;-83
2023/05/17 08:01:43;;;;;;;;;;;;;;;;;;5064022;28;19935;-83
2023/05/17 08:04:11;;;;;;;;;;;;;;;;;;5065136;28;19928;-83
2023/05/17 08:06:38;;;;;;;;;;;;;;;;;;5073919;28;19942;-81
2023/05/17 08:09:06;;;;;;;;;;;;;;;;;;5068101;28;19928;-81
2023/05/17 08:11:33;;;;;;;;;;;;;;;;;;5061214;28;19951;-80
2023/05/17 08:14:01;;;;;;;;;;;;;;;;;;5064792;28;19935;-82
2023/05/17 08:16:33;;;;;;;;;;;;;;;;;;5065156;28;20288;-83
2023/05/17 08:19:01;;;;;;;;;;;;;;;;;;5061807;28;19928;-81
2023/05/17 08:21:29;;;;;;;;;;;;;;;;;;5067013;28;20707;-82
2023/05/17 08:23:57;;;;;;;;;;;;;;;;;;5076634;28;20349;-81
2023/05/17 08:26:25;;;;;;;;;;;;;;;;;;5067915;28;19924;-80
2023/05/17 08:31:50;;;;;;;;;;;;;;;;;;5064580;28;19932;-82
2023/05/17 08:34:22;;;;;;;;;;;;;;;;;;5061602;28;19935;-82
2023/05/17 08:36:55;;;;;;;;;;;;;;;;;;5066537;28;19931;-81
2023/05/17 08:39:27;;;;;;;;;;;;;;;;;;5064796;28;19934;-79
2023/05/17 08:42:01;;;;;;;;;;;;;;;;;;5078990;28;19928;-81
2023/05/17 08:44:28;;;;;;;;;;;;;;;;;;5062538;28;20304;-82
2023/05/17 08:47:01;;;;;;;;;;;;;;;;;;5067974;28;19928;-81
2023/05/17 08:49:36;;;;;;;;;;;;;;;;;;5061210;28;19969;-81
2023/05/17 08:52:08;;;;;;;;;;;;;;;;;;5063673;28;19935;-81
2023/05/17 08:54:36;;;;;;;;;;;;;;;;;;5063082;28;19932;-82
2023/05/17 08:57:05;;;;;;;;;;;;;;;;;;5050153;28;20320;-85
2023/05/17 08:59:33;;;;;;;;;;;;;;;;;;5030939;28;19935;-82
2023/05/17 09:02:06;;;;;;;;;;;;;;;;;;5034184;28;19928;-82
2023/05/17 09:04:34;;;;;;;;;;;;;;;;;;5044971;28;19935;-83
2023/05/17 09:07:04;;;;;;;;;;;;;;;;;;5040018;28;19931;-82
2023/05/17 09:09:32;;;;;;;;;;;;;;;;;;5041225;28;19935;-83
2023/05/17 09:12:01;;;;;;;;;;;;;;;;;;5041560;28;20443;-81
2023/05/17 09:14:29;;;;;;;;;;;;;;;;;;5018492;28;20340;-83
2023/05/17 09:16:56;;;;;;;;;;;;;;;;;;5037734;28;21526;-81
2023/05/17 09:19:29;;;;;;;;;;;;;;;;;;5042739;28;19935;-82
2023/05/17 09:21:56;;;;;;;;;;;;;;;;;;5047373;28;19935;-82
2023/05/17 09:24:25;;;;;;;;;;;;;;;;;;5039757;28;20340;-81
2023/05/17 09:26:53;;;;;;;;;;;;;;;;;;5041991;28;19928;-82
2023/05/17 09:29:21;;;;;;;;;;;;;;;;;;5047734;28;19928;-80
2023/05/17 09:31:53;;;;;;;;;;;;;;;;;;5046143;28;19935;-82
2023/05/17 09:34:22;;;;;;;;;;;;;;;;;;5048376;28;20396;-81
2023/05/17 09:36:50;;;;;;;;;;;;;;;;;;5044541;28;19929;-82
2023/05/17 09:39:17;;;;;;;;;;;;;;;;;;5042094;28;19928;-80
2023/05/17 09:41:53;;;;;;;;;;;;;;;;;;5040996;28;19927;-82
2023/05/17 09:44:26;;;;;;;;;;;;;;;;;;5043659;28;19928;-83
2023/05/17 09:46:53;;;;;;;;;;;;;;;;;;5043584;28;19928;-81
2023/05/17 09:49:21;;;;;;;;;;;;;;;;;;5046758;28;19928;-81
2023/05/17 09:51:49;;;;;;;;;;;;;;;;;;5043294;28;19950;-82
2023/05/17 09:54:17;;;;;;;;;;;;;;;;;;5041739;28;19946;-81
2023/05/17 09:56:45;;;;;;;;;;;;;;;;;;5047369;28;20554;-81
2023/05/17 09:59:12;;;;;;;;;;;;;;;;;;5048225;28;20403;-82
2023/05/17 10:01:40;;;;;;;;;;;;;;;;;;5045785;28;19928;-82
2023/05/17 10:04:08;;;;;;;;;;;;;;;;;;5043786;28;20015;-83
2023/05/17 10:06:35;;;;;;;;;;;;;;;;;;5040800;28;19928;-83
2023/05/17 10:09:08;;;;;;;;;;;;;;;;;;5044245;28;19928;-80
2023/05/17 10:11:41;;;;;;;;;;;;;;;;;;5040593;28;20998;-80
2023/05/17 10:14:09;;;;;;;;;;;;;;;;;;5042391;28;19928;-81
2023/05/17 10:16:37;;;;;;;;;;;;;;;;;;5047113;28;20715;-80
2023/05/17 10:19:04;;;;;;;;;;;;;;;;;;5048232;28;19927;-81
2023/05/17 10:21:32;;;;;;;;;;;;;;;;;;5044196;28;19928;-82
2023/05/17 10:23:59;;;;;;;;;;;;;;;;;;5048595;28;19931;-81
2023/05/17 10:26:27;;;;;;;;;;;;;;;;;;5045752;28;19936;-81
2023/05/17 10:28:59;;;;;;;;;;;;;;;;;;5048007;28;19928;-82
2023/05/17 10:31:27;;;;;;;;;;;;;;;;;;5042926;28;19991;-82
2023/05/17 10:33:54;;;;;;;;;;;;;;;;;;5034015;28;20457;-79
2023/05/17 10:36:22;;;;;;;;;;;;;;;;;;5041643;28;19936;-80
2023/05/17 10:38:49;;;;;;;;;;;;;;;;;;5042372;28;19947;-80
2023/05/17 10:41:22;;;;;;;;;;;;;;;;;;5043772;28;20552;-80
2023/05/17 10:43:50;;;;;;;;;;;;;;;;;;5047314;28;19928;-81
2023/05/17 10:46:20;;;;;;;;;;;;;;;;;;5046723;28;19958;-81
2023/05/17 10:48:47;;;;;;;;;;;;;;;;;;5064137;28;19935;-81
2023/05/17 10:51:20;;;;;;;;;;;;;;;;;;5049825;28;19935;-80
2023/05/17 10:53:47;;;;;;;;;;;;;;;;;;5048796;28;20627;-80
2023/05/17 10:56:15;;;;;;;;;;;;;;;;;;5048301;28;19939;-80
2023/05/17 10:58:42;;;;;;;;;;;;;;;;;;5048187;28;19939;-80
2023/05/17 11:01:15;;;;;;;;;;;;;;;;;;5043937;28;19928;-81
2023/05/17 11:03:43;;;;;;;;;;;;;;;;;;5039405;28;19928;-80
2023/05/17 11:06:10;;;;;;;;;;;;;;;;;;5057552;28;20276;-81
2023/05/17 11:08:38;;;;;;;;;;;;;;;;;;5040171;28;19928;-80
2023/05/17 11:11:06;;;;;;;;;;;;;;;;;;5038211;28;19928;-80
2023/05/17 11:13:38;;;;;;;;;;;;;;;;;;5045012;28;20019;-82
2023/05/17 11:16:06;;;;;;;;;;;;;;;;;;5041364;28;20850;-81
2023/05/17 11:18:33;;;;;;;;;;;;;;;;;;5039632;28;19928;-82
2023/05/17 11:21:01;;;;;;;;;;;;;;;;;;5044997;28;19928;-82
2023/05/17 11:23:30;;;;;;;;;;;;;;;;;;5046962;28;19928;-82
2023/05/17 11:25:58;;;;;;;;;;;;;;;;;;5047968;28;19924;-81
2023/05/17 11:28:25;;;;;;;;;;;;;;;;;;5042009;28;22034;-83
2023/05/17 11:30:58;;;;;;;;;;;;;;;;;;5040197;28;19929;-82
2023/05/17 11:33:26;;;;;;;;;;;;;;;;;;5045488;28;19939;-82
2023/05/17 11:35:53;;;;;;;;;;;;;;;;;;5046925;28;19928;-80
2023/05/17 11:38:21;;;;;;;;;;;;;;;;;;5050952;28;20392;-81
2023/05/17 11:40:53;;;;;;;;;;;;;;;;;;5033222;28;19935;-82
2023/05/17 11:43:29;;;;;;;;;;;;;;;;;;5058484;28;19928;-82
2023/05/17 11:45:57;;;;;;;;;;;;;;;;;;5069218;28;19924;-82
2023/05/17 11:48:24;;;;;;;;;;;;;;;;;;5068238;28;19928;-81
2023/05/17 11:50:57;;;;;;;;;;;;;;;;;;5057170;28;19928;-83
2023/05/17 11:53:29;;;;;;;;;;;;;;;;;;5065845;28;20534;-82
2023/05/17 11:55:57;;;;;;;;;;;;;;;;;;5066209;28;19928;-81
2023/05/17 11:58:29;;;;;;;;;;;;;;;;;;5064886;28;19928;-84
2023/05/17 12:00:57;;;;;;;;;;;;;;;;;;5070840;28;20642;-80
2023/05/17 12:03:30;;;;;;;;;;;;;;;;;;5061435;28;19935;-82
2023/05/17 12:05:58;;;;;;;;;;;;;;;;;;5060191;28;19928;-81
2023/05/17 12:08:30;;;;;;;;;;;;;;;;;;5062637;28;19928;-79
2023/05/17 12:10:58;;;;;;;;;;;;;;;;;;5056529;28;19928;-80
2023/05/17 12:13:26;;;;;;;;;;;;;;;;;;5062949;28;19928;-82
2023/05/17 12:15:53;;;;;;;;;;;;;;;;;;5060841;28;19951;-81
2023/05/17 12:18:21;;;;;;;;;;;;;;;;;;5066447;28;19928;-82
2023/05/17 12:20:48;;;;;;;;;;;;;;;;;;5062323;28;19935;-80
2023/05/17 12:23:16;;;;;;;;;;;;;;;;;;5059726;28;19931;-82
2023/05/17 12:25:43;;;;;;;;;;;;;;;;;;5058870;28;19928;-82
2023/05/17 12:28:17;;;;;;;;;;;;;;;;;;5061499;28;20384;-81
2023/05/17 12:30:44;;;;;;;;;;;;;;;;;;5066572;28;20624;-81
2023/05/17 12:33:12;;;;;;;;;;;;;;;;;;5061364;28;19934;-84
2023/05/17 12:35:45;;;;;;;;;;;;;;;;;;5064709;28;20504;-84
2023/05/17 12:38:12;;;;;;;;;;;;;;;;;;5070397;28;20360;-83
2023/05/17 12:40:40;;;;;;;;;;;;;;;;;;5044474;28;20285;-81
2023/05/17 12:43:12;;;;;;;;;;;;;;;;;;5050413;28;19928;-81
2023/05/17 12:45:40;;;;;;;;;;;;;;;;;;5043746;28;20541;-83
2023/05/17 12:48:12;;;;;;;;;;;;;;;;;;5046915;28;19928;-81
2023/05/17 12:50:40;;;;;;;;;;;;;;;;;;5051324;28;19928;-82
2023/05/17 12:53:08;;;;;;;;;;;;;;;;;;5046061;28;19928;-83
2023/05/17 12:55:35;;;;;;;;;;;;;;;;;;5042645;28;19935;-80
2023/05/17 12:58:03;;;;;;;;;;;;;;;;;;5045059;28;20870;-84
2023/05/17 13:00:31;;;;;;;;;;;;;;;;;;5048340;28;20303;-83
2023/05/17 13:02:58;;;;;;;;;;;;;;;;;;5048328;28;19931;-83
2023/05/17 13:05:26;;;;;;;;;;;;;;;;;;5043093;28;19928;-83
2023/05/17 13:07:58;;;;;;;;;;;;;;;;;;5050811;28;19928;-83
2023/05/17 13:10:26;;;;;;;;;;;;;;;;;;5045337;28;19928;-82
2023/05/17 13:12:54;;;;;;;;;;;;;;;;;;5056261;28;19932;-84
2023/05/17 13:15:26;;;;;;;;;;;;;;;;;;5039482;28;19935;-82
2023/05/17 13:17:54;;;;;;;;;;;;;;;;;;5042967;28;20401;-84
2023/05/17 13:20:21;;;;;;;;;;;;;;;;;;5043470;28;19928;-82
2023/05/17 13:22:49;;;;;;;;;;;;;;;;;;5041826;28;20581;-82
2023/05/17 13:25:17;;;;;;;;;;;;;;;;;;5046880;28;20678;-83
2023/05/17 13:27:47;;;;;;;;;;;;;;;;;;5041231;28;20506;-83
2023/05/17 13:30:14;;;;;;;;;;;;;;;;;;5039829;28;19928;-82
2023/05/17 13:32:42;;;;;;;;;;;;;;;;;;5049268;28;19951;-81
2023/05/17 13:35:15;;;;;;;;;;;;;;;;;;5043346;28;20728;-82
2023/05/17 13:37:42;;;;;;;;;;;;;;;;;;5046745;28;20183;-80
2023/05/17 13:40:10;;;;;;;;;;;;;;;;;;5042966;28;19935;-82
2023/05/17 13:42:38;;;;;;;;;;;;;;;;;;5049823;28;20011;-81
2023/05/17 13:45:07;;;;;;;;;;;;;;;;;;5022318;28;19929;-81
2023/05/17 13:47:40;;;;;;;;;;;;;;;;;;5045142;28;21163;-81
2023/05/17 13:50:16;;;;;;;;;;;;;;;;;;5044166;28;19928;-83
2023/05/17 13:52:43;;;;;;;;;;;;;;;;;;5043657;28;21095;-83
2023/05/17 13:55:17;;;;;;;;;;;;;;;;;;5044449;28;19928;-81
2023/05/17 13:57:49;;;;;;;;;;;;;;;;;;5041818;28;19939;-83
2023/05/17 14:00:17;;;;;;;;;;;;;;;;;;5046782;28;20254;-82
2023/05/17 14:02:44;;;;;;;;;;;;;;;;;;5044363;28;19928;-83
2023/05/17 14:05:13;;;;;;;;;;;;;;;;;;5042859;28;19928;-82
2023/05/17 14:07:42;;;;;;;;;;;;;;;;;;5041571;28;19928;-83
2023/05/17 14:10:11;;;;;;;;;;;;;;;;;;5042449;28;19929;-81
2023/05/17 14:12:38;;;;;;;;;;;;;;;;;;5048793;28;20359;-82
2023/05/17 14:15:11;;;;;;;;;;;;;;;;;;5045044;28;19924;-83
2023/05/17 14:17:38;;;;;;;;;;;;;;;;;;5045672;28;19937;-82
2023/05/17 14:20:06;;;;;;;;;;;;;;;;;;5039294;28;20585;-83
2023/05/17 14:22:39;;;;;;;;;;;;;;;;;;5045317;28;19929;-84
2023/05/17 14:25:06;;;;;;;;;;;;;;;;;;5040466;28;19928;-84
2023/05/17 14:27:34;;;;;;;;;;;;;;;;;;5040394;28;19928;-82
2023/05/17 14:30:02;;;;;;;;;;;;;;;;;;5064918;28;19931;-83
2023/05/17 14:32:29;;;;;;;;;;;;;;;;;;5044064;28;19928;-83
2023/05/17 14:34:57;;;;;;;;;;;;;;;;;;5045750;28;19928;-84
2023/05/17 14:37:24;;;;;;;;;;;;;;;;;;5043996;28;19936;-85
2023/05/17 14:39:52;;;;;;;;;;;;;;;;;;5048532;28;19929;-82
2023/05/17 14:42:20;;;;;;;;;;;;;;;;;;5049632;28;20292;-84
2023/05/17 14:44:47;;;;;;;;;;;;;;;;;;5024547;28;19928;-83
2023/05/17 14:47:21;;;;;;;;;;;;;;;;;;5044204;28;19928;-84
2023/05/17 14:49:48;;;;;;;;;;;;;;;;;;5043967;28;19928;-82
2023/05/17 14:52:16;;;;;;;;;;;;;;;;;;5048061;28;19943;-83
2023/05/17 14:54:44;;;;;;;;;;;;;;;;;;5061777;28;20312;-82
2023/05/17 14:57:11;;;;;;;;;;;;;;;;;;5040870;28;19928;-82
2023/05/17 14:59:44;;;;;;;;;;;;;;;;;;5044857;28;19931;-83
2023/05/17 15:02:17;;;;;;;;;;;;;;;;;;5043975;28;19928;-82
2023/05/17 15:04:50;;;;;;;;;;;;;;;;;;5043664;28;19928;-82
2023/05/17 15:07:22;;;;;;;;;;;;;;;;;;5042321;28;19928;-81
2023/05/17 15:09:54;;;;;;;;;;;;;;;;;;5045772;28;19936;-82
2023/05/17 15:12:27;;;;;;;;;;;;;;;;;;5040378;28;19928;-81
2023/05/17 15:14:55;;;;;;;;;;;;;;;;;;5047853;28;19935;-80
2023/05/17 15:17:27;;;;;;;;;;;;;;;;;;5047146;28;19928;-82
2023/05/17 15:19:55;;;;;;;;;;;;;;;;;;5040706;28;19928;-80
2023/05/17 15:22:28;;;;;;;;;;;;;;;;;;5045836;28;20261;-80
2023/05/17 15:25:00;;;;;;;;;;;;;;;;;;5042537;28;19978;-81
2023/05/17 15:27:33;;;;;;;;;;;;;;;;;;5045945;28;19987;-81
2023/05/17 15:30:00;;;;;;;;;;;;;;;;;;5044352;28;19935;-80
2023/05/17 15:32:33;;;;;;;;;;;;;;;;;;5045634;28;19928;-82
2023/05/17 15:35:04;;;;;;;;;;;;;;;;;;5044039;28;19935;-83
2023/05/17 15:37:31;;;;;;;;;;;;;;;;;;5043719;28;19929;-82
2023/05/17 15:39:59;;;;;;;;;;;;;;;;;;5050007;28;19928;-82
2023/05/17 15:42:27;;;;;;;;;;;;;;;;;;5042327;28;19928;-82
2023/05/17 15:44:55;;;;;;;;;;;;;;;;;;5014186;28;19935;-80
2023/05/17 15:47:22;;;;;;;;;;;;;;;;;;5040694;28;19935;-81
2023/05/17 15:49:56;;;;;;;;;;;;;;;;;;5040831;28;19928;-81
2023/05/17 15:52:29;;;;;;;;;;;;;;;;;;5044332;28;20397;-81
2023/05/17 15:54:56;;;;;;;;;;;;;;;;;;5047571;28;19924;-81
2023/05/17 15:57:24;;;;;;;;;;;;;;;;;;5047180;28;21913;-82
2023/05/17 15:59:52;;;;;;;;;;;;;;;;;;5048454;28;19928;-83
2023/05/17 16:02:19;;;;;;;;;;;;;;;;;;5044135;28;19931;-82
2023/05/17 16:04:47;;;;;;;;;;;;;;;;;;5049581;28;19928;-83
2023/05/17 16:07:19;;;;;;;;;;;;;;;;;;5050468;28;19940;-82
2023/05/17 16:09:47;;;;;;;;;;;;;;;;;;5043915;28;19928;-82
2023/05/17 16:12:15;;;;;;;;;;;;;;;;;;5049460;28;19928;-83
2023/05/17 16:14:43;;;;;;;;;;;;;;;;;;5046543;28;19936;-82
2023/05/17 16:17:11;;;;;;;;;;;;;;;;;;5044978;28;20293;-82
2023/05/17 16:19:38;;;;;;;;;;;;;;;;;;5054234;28;19935;-80
2023/05/17 16:22:12;;;;;;;;;;;;;;;;;;5048040;28;19928;-83
2023/05/17 16:24:39;;;;;;;;;;;;;;;;;;5047340;28;19928;-82
2023/05/17 16:27:12;;;;;;;;;;;;;;;;;;5045001;28;19928;-81
2023/05/17 16:29:39;;;;;;;;;;;;;;;;;;5049367;28;19935;-81
2023/05/17 16:32:08;;;;;;;;;;;;;;;;;;5051665;28;20424;-81
2023/05/17 16:34:43;;;;;;;;;;;;;;;;;;5045756;28;19928;-82
2023/05/17 16:37:15;;;;;;;;;;;;;;;;;;5050351;28;19928;-81
2023/05/17 16:39:43;;;;;;;;;;;;;;;;;;5047247;28;19928;-81
2023/05/17 16:42:15;;;;;;;;;;;;;;;;;;5047983;28;19928;-83
2023/05/17 16:44:43;;;;;;;;;;;;;;;;;;5018953;28;19942;-81
2023/05/17 16:47:10;;;;;;;;;;;;;;;;;;5042084;28;19943;-83
2023/05/17 16:49:39;;;;;;;;;;;;;;;;;;5042734;28;19928;-82
2023/05/17 16:52:07;;;;;;;;;;;;;;;;;;5046062;28;19928;-81
2023/05/17 16:54:35;;;;;;;;;;;;;;;;;;5045912;28;19928;-81
2023/05/17 16:57:03;;;;;;;;;;;;;;;;;;5046619;28;19935;-80
2023/05/17 16:59:30;;;;;;;;;;;;;;;;;;5043688;28;20627;-80
2023/05/17 17:01:58;;;;;;;;;;;;;;;;;;5042592;28;19928;-83